OOCL Oakland — 3EKJ6 — position and weather

sailwx.info

Track history (hours):
 
Tides and Currents Weather Stations Pressure Air Temp Water Temp Dewpoint Dewpoint Depression Visibility Wind Speed Wind Dir Waves Ship Positions

OOCL Oakland

Last reported at 2015-Apr-17 03:24 UTC. Time now 2015-Apr-21 01:30 UTC.
Position N 34°28' E 140°18'.

Length 280 m; draft 11.6 m.

Type: Ship. MMSI: 372703235.

Date/timePositionNaut miles runAvg speedWind from/ knotsBaromVisibWave heightAir tempDewpointWater temp
2015-Apr-17 03:24N 34°28' E 140°18'89720.3
2015-Apr-15 07:19N 29°54' E 123°30'1519.8
2015-Apr-15 06:33N 29°51' E 123°12'2019.7
2015-Apr-15 05:33N 29°49' E 122°50'1918.7
2015-Apr-15 04:33N 29°44' E 122°29'1514.6
2015-Apr-15 03:33N 29°49' E 122°13'1312.7
2015-Apr-15 02:32N 29°56' E 122°01'7 7.3
2015-Apr-15 01:33N 29°56' E 121°52'0 0.0
2015-Apr-15 00:20N 29°56' E 121°52'0 0.0
2015-Apr-14 23:32N 29°56' E 121°52'0 0.0
2015-Apr-14 22:32N 29°56' E 121°52'0 0.0
2015-Apr-14 21:32N 29°56' E 121°52'0 0.0
2015-Apr-14 20:32N 29°56' E 121°52'0 0.0
2015-Apr-14 19:26N 29°56' E 121°52'0 0.0
2015-Apr-14 18:20N 29°56' E 121°52'0 0.0
2015-Apr-14 17:26N 29°56' E 121°52'0 0.0
2015-Apr-14 16:26N 29°56' E 121°52'0 0.0
2015-Apr-14 15:32N 29°56' E 121°52'0 0.0
2015-Apr-14 14:26N 29°56' E 121°52'0 0.0
2015-Apr-14 13:32N 29°56' E 121°52'0 0.5
2015-Apr-14 12:33N 29°56' E 121°53'10 9.8
2015-Apr-14 11:33N 29°56' E 122°04'1211.9
2015-Apr-14 10:33N 29°48' E 122°15'7 6.5
2015-Apr-14 09:33N 29°46' E 122°22'0 0.2
2015-Apr-14 07:08N 29°46' E 122°22'0 0.1
2015-Apr-14 06:32N 29°46' E 122°22'0 0.0
2015-Apr-14 01:20N 29°46' E 122°22'4 4.8
2015-Apr-14 00:33N 29°46' E 122°27'1111.4
2015-Apr-13 23:33N 29°50' E 122°39'77 9.3
2015-Apr-13 15:21N 31°06' E 122°26'911.1
2015-Apr-13 14:33N 31°07' E 122°16'9 9.2
2015-Apr-13 13:33N 31°13' E 122°07'1212.3
2015-Apr-13 12:33N 31°16' E 121°53'1313.2
2015-Apr-13 11:33N 31°21' E 121°39'4 4.1
2015-Apr-13 10:33N 31°23' E 121°35'0 0.0
2015-Apr-13 09:30N 31°23' E 121°35'0 0.0
2015-Apr-13 08:33N 31°23' E 121°35'0 0.0
2015-Apr-13 07:33N 31°23' E 121°35'0 0.0
2015-Apr-13 06:33N 31°23' E 121°35'0 0.0
2015-Apr-13 05:33N 31°23' E 121°35'0 0.0
2015-Apr-13 04:30N 31°23' E 121°35'0 0.1
2015-Apr-13 03:33N 31°23' E 121°35'0 0.1
2015-Apr-13 02:33N 31°23' E 121°35'0 0.0
2015-Apr-13 01:33N 31°23' E 121°35'0 0.1
2015-Apr-13 00:33N 31°23' E 121°35'0 0.1
2015-Apr-12 23:30N 31°23' E 121°35'0 0.1
2015-Apr-12 22:33N 31°23' E 121°35'0 0.0
2015-Apr-12 21:33N 31°23' E 121°35'0 0.1
2015-Apr-12 20:33N 31°23' E 121°35'0 0.1
2015-Apr-12 19:33N 31°23' E 121°35'0 0.1
2015-Apr-12 18:33N 31°23' E 121°35'0 0.0
2015-Apr-12 17:33N 31°23' E 121°35'0 0.0
2015-Apr-12 16:33N 31°23' E 121°35'0 0.1
2015-Apr-12 15:33N 31°23' E 121°35'0 0.0
2015-Apr-12 14:30N 31°23' E 121°35'0 0.0
2015-Apr-12 13:30N 31°23' E 121°35'0 0.0
2015-Apr-12 12:33N 31°23' E 121°35'0 0.0
2015-Apr-12 11:33N 31°23' E 121°35'0 0.0
2015-Apr-12 10:33N 31°23' E 121°35'1 0.7
2015-Apr-12 09:33N 31°23' E 121°34'7 6.9
2015-Apr-12 08:33N 31°20' E 121°42'9 9.2
2015-Apr-12 07:33N 31°16' E 121°51'1110.5
2015-Apr-12 06:33N 31°14' E 122°04'1010.2
2015-Apr-12 05:33N 31°09' E 122°14'9 8.6
2015-Apr-12 04:32N 31°07' E 122°24'1010.2
2015-Apr-12 03:33N 31°07' E 122°35'9 9.3
2015-Apr-12 02:32N 31°08' E 122°46'1010.5
2015-Apr-12 01:33N 31°09' E 122°58'1110.9
2015-Apr-12 00:32N 31°15' E 123°09'1413.8
2015-Apr-11 23:33N 31°26' E 123°19'1313.3
2015-Apr-11 22:34N 31°34' E 123°31'1514.4
2015-Apr-11 21:33N 31°41' E 123°46'  
Track history (hours):
 
Tides and Currents Weather Stations Pressure Air Temp Water Temp Dewpoint Dewpoint Depression Visibility Wind Speed Wind Dir Waves Ship Positions

OOCL Oakland

Last reported at 2015-Apr-17 03:24 UTC. Time now 2015-Apr-21 01:30 UTC.
Position N 34°28' E 140°18'.

Length 280 m; draft 11.6 m.

Type: Ship. MMSI: 372703235.

Date/timePositionNaut miles runAvg speedWind from/ knotsBaromVisibWave heightAir tempDewpointWater temp
2015-Apr-17 03:24N 34°28' E 140°18'89720.3
2015-Apr-15 07:19N 29°54' E 123°30'1519.8
2015-Apr-15 06:33N 29°51' E 123°12'2019.7
2015-Apr-15 05:33N 29°49' E 122°50'1918.7
2015-Apr-15 04:33N 29°44' E 122°29'1514.6
2015-Apr-15 03:33N 29°49' E 122°13'1312.7
2015-Apr-15 02:32N 29°56' E 122°01'7 7.3
2015-Apr-15 01:33N 29°56' E 121°52'0 0.0
2015-Apr-15 00:20N 29°56' E 121°52'0 0.0
2015-Apr-14 23:32N 29°56' E 121°52'0 0.0
2015-Apr-14 22:32N 29°56' E 121°52'0 0.0
2015-Apr-14 21:32N 29°56' E 121°52'0 0.0
2015-Apr-14 20:32N 29°56' E 121°52'0 0.0
2015-Apr-14 19:26N 29°56' E 121°52'0 0.0
2015-Apr-14 18:20N 29°56' E 121°52'0 0.0
2015-Apr-14 17:26N 29°56' E 121°52'0 0.0
2015-Apr-14 16:26N 29°56' E 121°52'0 0.0
2015-Apr-14 15:32N 29°56' E 121°52'0 0.0
2015-Apr-14 14:26N 29°56' E 121°52'0 0.0
2015-Apr-14 13:32N 29°56' E 121°52'0 0.5
2015-Apr-14 12:33N 29°56' E 121°53'10 9.8
2015-Apr-14 11:33N 29°56' E 122°04'1211.9
2015-Apr-14 10:33N 29°48' E 122°15'7 6.5
2015-Apr-14 09:33N 29°46' E 122°22'0 0.2
2015-Apr-14 07:08N 29°46' E 122°22'0 0.1
2015-Apr-14 06:32N 29°46' E 122°22'0 0.0
2015-Apr-14 01:20N 29°46' E 122°22'4 4.8
2015-Apr-14 00:33N 29°46' E 122°27'1111.4
2015-Apr-13 23:33N 29°50' E 122°39'77 9.3
2015-Apr-13 15:21N 31°06' E 122°26'911.1
2015-Apr-13 14:33N 31°07' E 122°16'9 9.2
2015-Apr-13 13:33N 31°13' E 122°07'1212.3
2015-Apr-13 12:33N 31°16' E 121°53'1313.2
2015-Apr-13 11:33N 31°21' E 121°39'4 4.1
2015-Apr-13 10:33N 31°23' E 121°35'0 0.0
2015-Apr-13 09:30N 31°23' E 121°35'0 0.0
2015-Apr-13 08:33N 31°23' E 121°35'0 0.0
2015-Apr-13 07:33N 31°23' E 121°35'0 0.0
2015-Apr-13 06:33N 31°23' E 121°35'0 0.0
2015-Apr-13 05:33N 31°23' E 121°35'0 0.0
2015-Apr-13 04:30N 31°23' E 121°35'0 0.1
2015-Apr-13 03:33N 31°23' E 121°35'0 0.1
2015-Apr-13 02:33N 31°23' E 121°35'0 0.0
2015-Apr-13 01:33N 31°23' E 121°35'0 0.1
2015-Apr-13 00:33N 31°23' E 121°35'0 0.1
2015-Apr-12 23:30N 31°23' E 121°35'0 0.1
2015-Apr-12 22:33N 31°23' E 121°35'0 0.0
2015-Apr-12 21:33N 31°23' E 121°35'0 0.1
2015-Apr-12 20:33N 31°23' E 121°35'0 0.1
2015-Apr-12 19:33N 31°23' E 121°35'0 0.1
2015-Apr-12 18:33N 31°23' E 121°35'0 0.0
2015-Apr-12 17:33N 31°23' E 121°35'0 0.0
2015-Apr-12 16:33N 31°23' E 121°35'0 0.1
2015-Apr-12 15:33N 31°23' E 121°35'0 0.0
2015-Apr-12 14:30N 31°23' E 121°35'0 0.0
2015-Apr-12 13:30N 31°23' E 121°35'0 0.0
2015-Apr-12 12:33N 31°23' E 121°35'0 0.0
2015-Apr-12 11:33N 31°23' E 121°35'0 0.0
2015-Apr-12 10:33N 31°23' E 121°35'1 0.7
2015-Apr-12 09:33N 31°23' E 121°34'7 6.9
2015-Apr-12 08:33N 31°20' E 121°42'9 9.2
2015-Apr-12 07:33N 31°16' E 121°51'1110.5
2015-Apr-12 06:33N 31°14' E 122°04'1010.2
2015-Apr-12 05:33N 31°09' E 122°14'9 8.6
2015-Apr-12 04:32N 31°07' E 122°24'1010.2
2015-Apr-12 03:33N 31°07' E 122°35'9 9.3
2015-Apr-12 02:32N 31°08' E 122°46'1010.5
2015-Apr-12 01:33N 31°09' E 122°58'1110.9
2015-Apr-12 00:32N 31°15' E 123°09'1413.8
2015-Apr-11 23:33N 31°26' E 123°19'1313.3
2015-Apr-11 22:34N 31°34' E 123°31'1514.4
2015-Apr-11 21:33N 31°41' E 123°46'  

Dump ship's entire track history